sensor_id;sensor_type;location;lat;lon;timestamp;pressure;altitude;pressure_sealevel;temperature;humidity
31357;BME280;60001;48.404;11.738;2023-02-28T00:00:36;96807.22;;;-1.03;60.76
31357;BME280;60001;48.404;11.738;2023-02-28T00:02:09;96796.53;;;-1.08;60.55
31357;BME280;60001;48.404;11.738;2023-02-28T00:03:40;96811.44;;;-1.02;60.84
31357;BME280;60001;48.404;11.738;2023-02-28T00:05:14;96800.75;;;-1.07;60.86
31357;BME280;60001;48.404;11.738;2023-02-28T00:06:47;96800.09;;;-1.09;60.67
31357;BME280;60001;48.404;11.738;2023-02-28T00:08:19;96797.69;;;-1.19;61.12
31357;BME280;60001;48.404;11.738;2023-02-28T00:09:49;96796.22;;;-1.14;60.92
31357;BME280;60001;48.404;11.738;2023-02-28T00:11:21;96795.75;;;-1.17;61.08
31357;BME280;60001;48.404;11.738;2023-02-28T00:12:55;96794.28;;;-1.20;60.96
31357;BME280;60001;48.404;11.738;2023-02-28T00:14:30;96794.78;;;-1.24;60.82
31357;BME280;60001;48.404;11.738;2023-02-28T00:16:04;96787.69;;;-1.39;61.37
31357;BME280;60001;48.404;11.738;2023-02-28T00:17:37;96796.72;;;-1.26;61.23
31357;BME280;60001;48.404;11.738;2023-02-28T00:19:09;96788.97;;;-1.34;61.07
31357;BME280;60001;48.404;11.738;2023-02-28T00:20:43;96791.88;;;-1.29;60.69
31357;BME280;60001;48.404;11.738;2023-02-28T00:22:16;96788.66;;;-1.31;60.37
31357;BME280;60001;48.404;11.738;2023-02-28T00:23:49;96779.91;;;-1.30;60.87
31357;BME280;60001;48.404;11.738;2023-02-28T00:25:23;96785.06;;;-1.22;60.55
31357;BME280;60001;48.404;11.738;2023-02-28T00:26:54;96780.09;;;-1.48;61.21
31357;BME280;60001;48.404;11.738;2023-02-28T00:28:26;96745.31;;;-1.70;60.90
31357;BME280;60001;48.404;11.738;2023-02-28T00:29:58;96784.44;;;-1.32;60.90
31357;BME280;60001;48.404;11.738;2023-02-28T00:31:31;96777.00;;;-1.35;61.14
31357;BME280;60001;48.404;11.738;2023-02-28T00:33:03;96787.53;;;-1.53;61.77
31357;BME280;60001;48.404;11.738;2023-02-28T00:34:35;96780.59;;;-1.53;61.45
31357;BME280;60001;48.404;11.738;2023-02-28T00:36:10;96783.84;;;-1.59;61.49
31357;BME280;60001;48.404;11.738;2023-02-28T00:37:43;96785.94;;;-1.54;61.82
31357;BME280;60001;48.404;11.738;2023-02-28T00:39:15;96782.50;;;-1.47;61.40
31357;BME280;60001;48.404;11.738;2023-02-28T00:40:47;96778.31;;;-1.56;61.80
31357;BME280;60001;48.404;11.738;2023-02-28T00:42:18;96778.31;;;-1.56;61.24
31357;BME280;60001;48.404;11.738;2023-02-28T00:43:49;96780.91;;;-1.48;61.65
31357;BME280;60001;48.404;11.738;2023-02-28T00:45:21;96777.19;;;-1.45;61.18
31357;BME280;60001;48.404;11.738;2023-02-28T00:46:55;96779.91;;;-1.47;61.09
31357;BME280;60001;48.404;11.738;2023-02-28T00:48:27;96775.09;;;-1.50;61.29
31357;BME280;60001;48.404;11.738;2023-02-28T00:49:59;96777.19;;;-1.61;61.67
31357;BME280;60001;48.404;11.738;2023-02-28T00:51:31;96778.47;;;-1.49;61.30
31357;BME280;60001;48.404;11.738;2023-02-28T00:53:03;96774.09;;;-1.41;60.82
31357;BME280;60001;48.404;11.738;2023-02-28T00:54:35;96771.03;;;-1.44;61.41
31357;BME280;60001;48.404;11.738;2023-02-28T00:56:07;96772.66;;;-1.76;62.04
31357;BME280;60001;48.404;11.738;2023-02-28T00:57:39;96777.53;;;-1.64;61.94
31357;BME280;60001;48.404;11.738;2023-02-28T00:59:11;96774.59;;;-1.61;61.68
31357;BME280;60001;48.404;11.738;2023-02-28T01:00:43;96773.47;;;-1.67;61.97
31357;BME280;60001;48.404;11.738;2023-02-28T01:02:20;96770.91;;;-1.59;62.04
31357;BME280;60001;48.404;11.738;2023-02-28T01:03:52;96773.81;;;-1.70;62.60
31357;BME280;60001;48.404;11.738;2023-02-28T01:05:23;96771.38;;;-1.72;62.55
31357;BME280;60001;48.404;11.738;2023-02-28T01:06:55;96769.94;;;-1.66;62.07
31357;BME280;60001;48.404;11.738;2023-02-28T01:08:28;96761.03;;;-1.72;62.30
31357;BME280;60001;48.404;11.738;2023-02-28T01:10:00;96769.91;;;-1.58;61.87
31357;BME280;60001;48.404;11.738;2023-02-28T01:11:32;96768.44;;;-1.60;61.57
31357;BME280;60001;48.404;11.738;2023-02-28T01:13:05;96750.03;;;-1.74;61.33
31357;BME280;60001;48.404;11.738;2023-02-28T01:14:37;96769.13;;;-1.83;63.04
31357;BME280;60001;48.404;11.738;2023-02-28T01:16:09;96770.88;;;-1.75;62.98
31357;BME280;60001;48.404;11.738;2023-02-28T01:17:42;96762.81;;;-1.72;62.22
31357;BME280;60001;48.404;11.738;2023-02-28T01:19:13;96759.09;;;-1.70;62.26
31357;BME280;60001;48.404;11.738;2023-02-28T01:20:44;96761.34;;;-1.67;62.40
31357;BME280;60001;48.404;11.738;2023-02-28T01:22:16;96754.69;;;-1.61;62.36
31357;BME280;60001;48.404;11.738;2023-02-28T01:23:49;96758.94;;;-1.60;62.26
31357;BME280;60001;48.404;11.738;2023-02-28T01:25:21;96763.94;;;-1.67;62.66
31357;BME280;60001;48.404;11.738;2023-02-28T01:26:53;96758.59;;;-1.81;63.22
31357;BME280;60001;48.404;11.738;2023-02-28T01:28:25;96760.22;;;-1.64;62.93
31357;BME280;60001;48.404;11.738;2023-02-28T01:29:57;96755.03;;;-1.56;61.99
31357;BME280;60001;48.404;11.738;2023-02-28T01:31:29;96751.78;;;-1.58;62.72
31357;BME280;60001;48.404;11.738;2023-02-28T01:33:02;96757.59;;;-1.56;62.40
31357;BME280;60001;48.404;11.738;2023-02-28T01:34:33;96764.09;;;-1.60;62.71
31357;BME280;60001;48.404;11.738;2023-02-28T01:36:09;96759.72;;;-1.59;62.45
31357;BME280;60001;48.404;11.738;2023-02-28T01:37:42;96751.00;;;-1.58;62.49
31357;BME280;60001;48.404;11.738;2023-02-28T01:39:14;96766.53;;;-1.58;62.46
31357;BME280;60001;48.404;11.738;2023-02-28T01:40:45;96745.50;;;-1.72;63.39
31357;BME280;60001;48.404;11.738;2023-02-28T01:42:17;96754.09;;;-1.79;63.11
31357;BME280;60001;48.404;11.738;2023-02-28T01:43:58;96759.72;;;-1.59;62.56
31357;BME280;60001;48.404;11.738;2023-02-28T01:45:31;96746.94;;;-1.61;62.47
31357;BME280;60001;48.404;11.738;2023-02-28T01:47:03;96751.16;;;-1.68;62.66
31357;BME280;60001;48.404;11.738;2023-02-28T01:48:40;96746.28;;;-1.63;62.91
31357;BME280;60001;48.404;11.738;2023-02-28T01:50:18;96741.75;;;-1.61;62.58
31357;BME280;60001;48.404;11.738;2023-02-28T01:51:54;96745.97;;;-1.76;63.63
31357;BME280;60001;48.404;11.738;2023-02-28T01:53:33;96744.53;;;-1.71;63.68
31357;BME280;60001;48.404;11.738;2023-02-28T01:55:07;96745.00;;;-1.59;62.87
31357;BME280;60001;48.404;11.738;2023-02-28T01:56:45;96743.06;;;-1.65;63.10
31357;BME280;60001;48.404;11.738;2023-02-28T01:58:18;96742.91;;;-1.72;63.33
31357;BME280;60001;48.404;11.738;2023-02-28T01:59:54;96752.13;;;-1.53;63.09
31357;BME280;60001;48.404;11.738;2023-02-28T02:01:29;96743.06;;;-1.65;62.70
31357;BME280;60001;48.404;11.738;2023-02-28T02:03:08;96747.72;;;-1.60;63.83
31357;BME280;60001;48.404;11.738;2023-02-28T02:04:50;96739.97;;;-1.60;62.90
31357;BME280;60001;48.404;11.738;2023-02-28T02:06:25;96747.25;;;-1.56;62.79
31357;BME280;60001;48.404;11.738;2023-02-28T02:08:02;96741.59;;;-1.59;63.17
31357;BME280;60001;48.404;11.738;2023-02-28T02:09:34;96732.03;;;-1.67;63.05
31357;BME280;60001;48.404;11.738;2023-02-28T02:11:11;96740.66;;;-1.67;63.36
31357;BME280;60001;48.404;11.738;2023-02-28T02:13:06;96738.06;;;-1.67;63.73
31357;BME280;60001;48.404;11.738;2023-02-28T02:14:54;96740.78;;;-1.68;63.36
31357;BME280;60001;48.404;11.738;2023-02-28T02:16:45;96746.31;;;-1.71;63.67
31357;BME280;60001;48.404;11.738;2023-02-28T02:18:29;96738.19;;;-1.68;63.94
31357;BME280;60001;48.404;11.738;2023-02-28T02:20:31;96740.78;;;-1.68;63.42
31357;BME280;60001;48.404;11.738;2023-02-28T02:22:25;96747.13;;;-1.79;64.12
31357;BME280;60001;48.404;11.738;2023-02-28T02:24:33;96737.72;;;-1.88;64.45
31357;BME280;60001;48.404;11.738;2023-02-28T02:26:49;96742.59;;;-1.85;64.10
31357;BME280;60001;48.404;11.738;2023-02-28T02:28:58;96740.84;;;-2.01;65.28
31357;BME280;60001;48.404;11.738;2023-02-28T02:32:49;96741.63;;;-1.84;64.52
31357;BME280;60001;48.404;11.738;2023-02-28T02:34:41;96745.34;;;-1.78;64.46
31357;BME280;60001;48.404;11.738;2023-02-28T02:36:23;96742.75;;;-1.78;64.53
31357;BME280;60001;48.404;11.738;2023-02-28T02:38:05;96740.63;;;-1.75;64.27
31357;BME280;60001;48.404;11.738;2023-02-28T02:39:48;96746.97;;;-1.77;64.38
31357;BME280;60001;48.404;11.738;2023-02-28T02:41:28;96741.16;;;-1.87;64.75
31357;BME280;60001;48.404;11.738;2023-02-28T02:43:13;96744.03;;;-1.82;64.70
31357;BME280;60001;48.404;11.738;2023-02-28T02:44:56;96740.34;;;-1.80;64.74
31357;BME280;60001;48.404;11.738;2023-02-28T02:46:34;96738.88;;;-1.82;64.56
31357;BME280;60001;48.404;11.738;2023-02-28T02:48:13;96742.28;;;-1.74;64.74
31357;BME280;60001;48.404;11.738;2023-02-28T02:49:51;96742.91;;;-2.04;65.36
31357;BME280;60001;48.404;11.738;2023-02-28T02:51:25;96731.75;;;-1.88;65.22
31357;BME280;60001;48.404;11.738;2023-02-28T02:53:02;96732.91;;;-1.99;65.18
31357;BME280;60001;48.404;11.738;2023-02-28T02:54:38;96746.34;;;-1.87;64.92
31357;BME280;60001;48.404;11.738;2023-02-28T02:56:15;96743.88;;;-1.81;64.58
31357;BME280;60001;48.404;11.738;2023-02-28T02:57:52;96744.72;;;-1.80;65.17
31357;BME280;60001;48.404;11.738;2023-02-28T02:59:28;96746.00;;;-1.92;65.33
31357;BME280;60001;48.404;11.738;2023-02-28T03:01:03;96743.25;;;-1.91;65.20
31357;BME280;60001;48.404;11.738;2023-02-28T03:02:37;96752.47;;;-1.97;65.99
31357;BME280;60001;48.404;11.738;2023-02-28T03:04:15;96743.72;;;-1.96;65.81
31357;BME280;60001;48.404;11.738;2023-02-28T03:05:50;96750.19;;;-1.91;65.63
31357;BME280;60001;48.404;11.738;2023-02-28T03:07:22;96739.84;;;-2.00;65.96
31357;BME280;60001;48.404;11.738;2023-02-28T03:08:54;96747.44;;;-1.98;65.91
31357;BME280;60001;48.404;11.738;2023-02-28T03:10:30;96737.91;;;-1.98;65.73
31357;BME280;60001;48.404;11.738;2023-02-28T03:12:02;96737.56;;;-2.03;65.86
31357;BME280;60001;48.404;11.738;2023-02-28T03:15:54;96743.25;;;-1.99;66.36
31357;BME280;60001;48.404;11.738;2023-02-28T03:17:47;96740.84;;;-2.01;66.34
31357;BME280;60001;48.404;11.738;2023-02-28T03:19:34;96741.00;;;-1.94;66.16
31357;BME280;60001;48.404;11.738;2023-02-28T03:21:19;96739.84;;;-1.83;66.09
31357;BME280;60001;48.404;11.738;2023-02-28T03:23:05;96733.69;;;-1.82;66.07
31357;BME280;60001;48.404;11.738;2023-02-28T03:24:45;96739.50;;;-1.72;65.76
31357;BME280;60001;48.404;11.738;2023-02-28T03:26:23;96744.03;;;-1.74;65.87
31357;BME280;60001;48.404;11.738;2023-02-28T03:28:05;96744.69;;;-1.72;65.73
31357;BME280;60001;48.404;11.738;2023-02-28T03:29:45;96743.38;;;-1.76;65.60
31357;BME280;60001;48.404;11.738;2023-02-28T03:31:22;96735.63;;;-1.76;65.67
31357;BME280;60001;48.404;11.738;2023-02-28T03:33:05;96733.22;;;-1.78;66.01
31357;BME280;60001;48.404;11.738;2023-02-28T03:34:43;96742.44;;;-1.83;66.56
31357;BME280;60001;48.404;11.738;2023-02-28T03:36:24;96740.34;;;-1.80;65.92
31357;BME280;60001;48.404;11.738;2023-02-28T03:38:05;96742.59;;;-1.85;66.53
31357;BME280;60001;48.404;11.738;2023-02-28T03:39:45;96749.22;;;-1.82;66.57
31357;BME280;60001;48.404;11.738;2023-02-28T03:41:23;96744.03;;;-1.74;66.57
31357;BME280;60001;48.404;11.738;2023-02-28T03:43:02;96740.78;;;-1.68;66.18
31357;BME280;60001;48.404;11.738;2023-02-28T03:44:40;96738.38;;;-1.70;66.06
31357;BME280;60001;48.404;11.738;2023-02-28T03:46:18;96739.69;;;-1.74;65.96
31357;BME280;60001;48.404;11.738;2023-02-28T03:47:53;96748.56;;;-1.68;65.82
31357;BME280;60001;48.404;11.738;2023-02-28T03:49:30;96746.31;;;-1.79;65.77
31357;BME280;60001;48.404;11.738;2023-02-28T03:51:09;96745.31;;;-1.70;66.12
31357;BME280;60001;48.404;11.738;2023-02-28T03:52:47;96742.91;;;-1.72;65.48
31357;BME280;60001;48.404;11.738;2023-02-28T03:54:25;96738.38;;;-1.70;65.83
31357;BME280;60001;48.404;11.738;2023-02-28T03:56:05;96747.44;;;-1.74;65.59
31357;BME280;60001;48.404;11.738;2023-02-28T03:57:44;96744.03;;;-1.66;65.87
31357;BME280;60001;48.404;11.738;2023-02-28T03:59:28;96731.75;;;-1.80;65.94
31357;BME280;60001;48.404;11.738;2023-02-28T04:01:07;96751.16;;;-1.84;65.78
31357;BME280;60001;48.404;11.738;2023-02-28T04:02:41;96756.47;;;-1.61;65.75
31357;BME280;60001;48.404;11.738;2023-02-28T04:04:15;96751.16;;;-1.76;65.48
31357;BME280;60001;48.404;11.738;2023-02-28T04:05:51;96742.09;;;-1.64;65.48
31357;BME280;60001;48.404;11.738;2023-02-28T04:07:23;96753.56;;;-1.75;65.60
31357;BME280;60001;48.404;11.738;2023-02-28T04:08:57;96751.78;;;-1.74;65.73
31357;BME280;60001;48.404;11.738;2023-02-28T04:10:29;96756.66;;;-1.71;65.97
31357;BME280;60001;48.404;11.738;2023-02-28T04:12:00;96750.31;;;-1.60;66.00
31357;BME280;60001;48.404;11.738;2023-02-28T04:13:32;96757.44;;;-1.54;65.47
31357;BME280;60001;48.404;11.738;2023-02-28T04:15:05;96760.22;;;-1.72;65.51
31357;BME280;60001;48.404;11.738;2023-02-28T04:16:40;96764.59;;;-1.73;65.63
31357;BME280;60001;48.404;11.738;2023-02-28T04:18:12;96756.84;;;-1.73;66.05
31357;BME280;60001;48.404;11.738;2023-02-28T04:19:44;96766.53;;;-1.58;65.37
31357;BME280;60001;48.404;11.738;2023-02-28T04:21:16;96768.63;;;-1.62;65.54
31357;BME280;60001;48.404;11.738;2023-02-28T04:22:51;96768.47;;;-1.69;65.88
31357;BME280;60001;48.404;11.738;2023-02-28T04:24:25;96766.69;;;-1.76;65.85
31357;BME280;60001;48.404;11.738;2023-02-28T04:25:57;96764.91;;;-1.68;65.92
31357;BME280;60001;48.404;11.738;2023-02-28T04:27:29;96765.69;;;-1.67;65.54
31357;BME280;60001;48.404;11.738;2023-02-28T04:29:02;96778.66;;;-1.75;65.98
31357;BME280;60001;48.404;11.738;2023-02-28T04:30:33;96755.69;;;-1.78;66.15
31357;BME280;60001;48.404;11.738;2023-02-28T04:32:06;96767.66;;;-1.77;66.31
31357;BME280;60001;48.404;11.738;2023-02-28T04:33:38;96768.31;;;-1.75;65.77
31357;BME280;60001;48.404;11.738;2023-02-28T04:35:10;96773.47;;;-1.75;66.41
31357;BME280;60001;48.404;11.738;2023-02-28T04:36:42;96768.81;;;-1.80;66.20
31357;BME280;60001;48.404;11.738;2023-02-28T04:38:14;96774.78;;;-1.71;65.95
31357;BME280;60001;48.404;11.738;2023-02-28T04:39:47;96766.34;;;-1.81;66.07
31357;BME280;60001;48.404;11.738;2023-02-28T04:41:20;96776.88;;;-1.75;65.68
31357;BME280;60001;48.404;11.738;2023-02-28T04:42:53;96779.31;;;-1.65;65.86
31357;BME280;60001;48.404;11.738;2023-02-28T04:44:23;96775.09;;;-1.58;65.75
31357;BME280;60001;48.404;11.738;2023-02-28T04:45:57;96774.13;;;-1.57;65.30
31357;BME280;60001;48.404;11.738;2023-02-28T04:47:30;96773.63;;;-1.60;65.84
31357;BME280;60001;48.404;11.738;2023-02-28T04:49:02;96778.16;;;-1.54;65.17
31357;BME280;60001;48.404;11.738;2023-02-28T04:50:34;96778.66;;;-1.59;65.46
31357;BME280;60001;48.404;11.738;2023-02-28T04:52:05;96774.94;;;-1.56;65.13
31357;BME280;60001;48.404;11.738;2023-02-28T04:53:39;96776.56;;;-1.63;65.12
31357;BME280;60001;48.404;11.738;2023-02-28T04:55:12;96778.50;;;-1.66;65.83
31357;BME280;60001;48.404;11.738;2023-02-28T04:56:43;96782.22;;;-1.60;65.80
31357;BME280;60001;48.404;11.738;2023-02-28T04:58:15;96782.72;;;-1.64;65.42
31357;BME280;60001;48.404;11.738;2023-02-28T04:59:48;96778.66;;;-1.67;65.59
31357;BME280;60001;48.404;11.738;2023-02-28T05:01:22;96779.78;;;-1.61;66.07
31357;BME280;60001;48.404;11.738;2023-02-28T05:02:55;96772.19;;;-1.71;65.38
31357;BME280;60001;48.404;11.738;2023-02-28T05:04:27;96780.75;;;-1.71;65.35
31357;BME280;60001;48.404;11.738;2023-02-28T05:05:58;96781.91;;;-1.65;65.90
31357;BME280;60001;48.404;11.738;2023-02-28T05:07:29;96787.88;;;-1.81;65.68
31357;BME280;60001;48.404;11.738;2023-02-28T05:09:01;96788.84;;;-1.82;65.91
31357;BME280;60001;48.404;11.738;2023-02-28T05:10:35;96786.09;;;-1.97;66.60
31357;BME280;60001;48.404;11.738;2023-02-28T05:12:08;96789.50;;;-1.96;66.66
31357;BME280;60001;48.404;11.738;2023-02-28T05:13:41;96793.56;;;-1.94;67.00
31357;BME280;60001;48.404;11.738;2023-02-28T05:15:13;96794.84;;;-2.14;67.29
31357;BME280;60001;48.404;11.738;2023-02-28T05:16:45;96792.41;;;-2.07;67.28
31357;BME280;60001;48.404;11.738;2023-02-28T05:18:17;96791.78;;;-2.01;67.46
31357;BME280;60001;48.404;11.738;2023-02-28T05:19:49;96787.25;;;-1.99;67.15
31357;BME280;60001;48.404;11.738;2023-02-28T05:21:27;96779.94;;;-1.96;66.59
31357;BME280;60001;48.404;11.738;2023-02-28T05:23:01;96790.00;;;-1.92;66.56
31357;BME280;60001;48.404;11.738;2023-02-28T05:24:33;96790.13;;;-2.02;66.40
31357;BME280;60001;48.404;11.738;2023-02-28T05:26:07;96778.84;;;-2.01;66.96
31357;BME280;60001;48.404;11.738;2023-02-28T05:27:39;96781.09;;;-2.14;67.16
31357;BME280;60001;48.404;11.738;2023-02-28T05:29:10;96779.31;;;-2.06;66.86
31357;BME280;60001;48.404;11.738;2023-02-28T05:30:42;96785.41;;;-2.23;67.14
31357;BME280;60001;48.404;11.738;2023-02-28T05:32:13;96788.50;;;-2.19;67.34
31357;BME280;60001;48.404;11.738;2023-02-28T05:33:45;96799.50;;;-2.26;67.32
31357;BME280;60001;48.404;11.738;2023-02-28T05:35:17;96801.97;;;-2.08;66.96
31357;BME280;60001;48.404;11.738;2023-02-28T05:36:49;96793.22;;;-1.99;66.49
31357;BME280;60001;48.404;11.738;2023-02-28T05:38:22;96796.13;;;-2.10;66.53
31357;BME280;60001;48.404;11.738;2023-02-28T05:39:54;96797.41;;;-2.06;66.85
31357;BME280;60001;48.404;11.738;2023-02-28T05:41:27;96796.63;;;-2.14;66.62
31357;BME280;60001;48.404;11.738;2023-02-28T05:42:59;96800.47;;;-2.10;66.75
31357;BME280;60001;48.404;11.738;2023-02-28T05:44:31;96802.41;;;-2.29;67.42
31357;BME280;60001;48.404;11.738;2023-02-28T05:46:04;96800.13;;;-2.24;67.59
31357;BME280;60001;48.404;11.738;2023-02-28T05:47:36;96806.63;;;-2.19;67.26
31357;BME280;60001;48.404;11.738;2023-02-28T05:49:08;96806.63;;;-2.11;67.01
31357;BME280;60001;48.404;11.738;2023-02-28T05:50:40;96808.75;;;-2.15;67.08
31357;BME280;60001;48.404;11.738;2023-02-28T05:52:14;96801.28;;;-2.10;67.08
31357;BME280;60001;48.404;11.738;2023-02-28T05:53:46;96800.66;;;-2.04;66.84
31357;BME280;60001;48.404;11.738;2023-02-28T05:55:18;96804.56;;;-2.00;66.87
31357;BME280;60001;48.404;11.738;2023-02-28T05:56:51;96812.66;;;-1.95;66.50
31357;BME280;60001;48.404;11.738;2023-02-28T05:58:24;96810.06;;;-1.95;66.18
31357;BME280;60001;48.404;11.738;2023-02-28T06:00:01;96815.38;;;-2.04;66.53
31357;BME280;60001;48.404;11.738;2023-02-28T06:01:35;96813.59;;;-2.04;66.44
31357;BME280;60001;48.404;11.738;2023-02-28T06:03:08;96807.59;;;-2.04;66.49
31357;BME280;60001;48.404;11.738;2023-02-28T06:04:41;96794.50;;;-2.11;66.10
31357;BME280;60001;48.404;11.738;2023-02-28T06:06:12;96805.81;;;-2.12;66.05
31357;BME280;60001;48.404;11.738;2023-02-28T06:07:44;96806.78;;;-2.21;66.87
31357;BME280;60001;48.404;11.738;2023-02-28T06:09:16;96810.47;;;-2.24;66.96
31357;BME280;60001;48.404;11.738;2023-02-28T06:10:48;96806.63;;;-2.11;66.76
31357;BME280;60001;48.404;11.738;2023-02-28T06:12:22;96803.88;;;-2.10;66.44
31357;BME280;60001;48.404;11.738;2023-02-28T06:13:54;96800.47;;;-2.18;65.60
31357;BME280;60001;48.404;11.738;2023-02-28T06:15:27;96802.44;;;-2.04;66.31
31357;BME280;60001;48.404;11.738;2023-02-28T06:17:00;96799.69;;;-2.03;66.06
31357;BME280;60001;48.404;11.738;2023-02-28T06:18:32;96804.03;;;-2.03;65.74
31357;BME280;60001;48.404;11.738;2023-02-28T06:20:04;96807.78;;;-2.06;66.10
31357;BME280;60001;48.404;11.738;2023-02-28T06:21:37;96799.84;;;-2.12;65.88
31357;BME280;60001;48.404;11.738;2023-02-28T06:23:09;96811.78;;;-2.19;66.62
31357;BME280;60001;48.404;11.738;2023-02-28T06:24:41;96810.53;;;-2.15;66.27
31357;BME280;60001;48.404;11.738;2023-02-28T06:26:13;96816.34;;;-2.13;66.27
31357;BME280;60001;48.404;11.738;2023-02-28T06:27:46;96819.72;;;-2.21;66.37
31357;BME280;60001;48.404;11.738;2023-02-28T06:29:18;96823.91;;;-2.28;66.75
31357;BME280;60001;48.404;11.738;2023-02-28T06:30:51;96819.84;;;-2.23;66.66
31357;BME280;60001;48.404;11.738;2023-02-28T06:32:23;96824.56;;;-2.18;66.09
31357;BME280;60001;48.404;11.738;2023-02-28T06:33:55;96821.34;;;-2.12;66.12
31357;BME280;60001;48.404;11.738;2023-02-28T06:35:27;96826.06;;;-2.07;65.88
31357;BME280;60001;48.404;11.738;2023-02-28T06:37:00;96817.94;;;-2.29;66.14
31357;BME280;60001;48.404;11.738;2023-02-28T06:38:34;96822.59;;;-2.24;66.08
31357;BME280;60001;48.404;11.738;2023-02-28T06:40:07;96824.56;;;-2.10;65.98
31357;BME280;60001;48.404;11.738;2023-02-28T06:41:40;96826.84;;;-2.15;66.89
31357;BME280;60001;48.404;11.738;2023-02-28T06:43:13;96828.75;;;-2.17;66.39
31357;BME280;60001;48.404;11.738;2023-02-28T06:44:45;96838.31;;;-2.09;65.83
31357;BME280;60001;48.404;11.738;2023-02-28T06:46:17;96828.94;;;-2.02;65.70
31357;BME280;60001;48.404;11.738;2023-02-28T06:47:49;96842.22;;;-1.89;65.65
31357;BME280;60001;48.404;11.738;2023-02-28T06:49:22;96835.31;;;-1.80;64.90
31357;BME280;60001;48.404;11.738;2023-02-28T06:51:01;96835.78;;;-1.69;64.74
31357;BME280;60001;48.404;11.738;2023-02-28T06:52:33;96841.78;;;-1.60;64.59
31357;BME280;60001;48.404;11.738;2023-02-28T06:54:07;96838.53;;;-1.46;64.47
31357;BME280;60001;48.404;11.738;2023-02-28T06:55:39;96834.31;;;-1.55;63.54
31357;BME280;60001;48.404;11.738;2023-02-28T06:57:11;96835.63;;;-1.59;64.05
31357;BME280;60001;48.404;11.738;2023-02-28T06:58:48;96837.88;;;-1.56;63.76
31357;BME280;60001;48.404;11.738;2023-02-28T07:00:21;96839.03;;;-1.50;63.34
31357;BME280;60001;48.404;11.738;2023-02-28T07:01:53;96839.50;;;-1.39;63.39
31357;BME280;60001;48.404;11.738;2023-02-28T07:03:25;96841.75;;;-1.35;63.33
31357;BME280;60001;48.404;11.738;2023-02-28T07:04:57;96836.25;;;-1.41;62.90
31357;BME280;60001;48.404;11.738;2023-02-28T07:06:29;96835.78;;;-1.44;63.09
31357;BME280;60001;48.404;11.738;2023-02-28T07:08:02;96831.41;;;-1.52;63.03
31357;BME280;60001;48.404;11.738;2023-02-28T07:09:34;96839.50;;;-1.39;63.42
31357;BME280;60001;48.404;11.738;2023-02-28T07:11:06;96839.63;;;-1.16;62.98
31357;BME280;60001;48.404;11.738;2023-02-28T07:12:39;96839.25;;;-1.04;62.81
31357;BME280;60001;48.404;11.738;2023-02-28T07:14:13;96836.69;;;-1.04;62.32
31357;BME280;60001;48.404;11.738;2023-02-28T07:15:53;96843.81;;;-1.06;61.92
31357;BME280;60001;48.404;11.738;2023-02-28T07:17:25;96835.59;;;-1.18;62.32
31357;BME280;60001;48.404;11.738;2023-02-28T07:18:57;96838.47;;;-1.13;62.63
31357;BME280;60001;48.404;11.738;2023-02-28T07:20:30;96839.16;;;-1.11;62.37
31357;BME280;60001;48.404;11.738;2023-02-28T07:22:02;96844.66;;;-1.14;62.54
31357;BME280;60001;48.404;11.738;2023-02-28T07:23:35;96845.44;;;-0.97;62.76
31357;BME280;60001;48.404;11.738;2023-02-28T07:25:09;96840.09;;;-1.04;61.86
31357;BME280;60001;48.404;11.738;2023-02-28T07:26:40;96838.94;;;-1.01;61.37
31357;BME280;60001;48.404;11.738;2023-02-28T07:28:13;96843.13;;;-0.92;62.27
31357;BME280;60001;48.404;11.738;2023-02-28T07:29:46;96846.50;;;-0.84;61.28
31357;BME280;60001;48.404;11.738;2023-02-28T07:31:19;96844.53;;;-0.73;62.23
31357;BME280;60001;48.404;11.738;2023-02-28T07:32:50;96847.94;;;-0.73;61.66
31357;BME280;60001;48.404;11.738;2023-02-28T07:34:25;96836.75;;;-0.73;61.03
31357;BME280;60001;48.404;11.738;2023-02-28T07:36:01;96839.63;;;-0.60;61.12
31357;BME280;60001;48.404;11.738;2023-02-28T07:37:33;96850.81;;;-0.60;60.58
31357;BME280;60001;48.404;11.738;2023-02-28T07:39:07;96853.38;;;-0.51;61.21
31357;BME280;60001;48.404;11.738;2023-02-28T07:40:40;96856.06;;;-0.37;60.63
31357;BME280;60001;48.404;11.738;2023-02-28T07:42:12;96847.31;;;-0.36;59.80
31357;BME280;60001;48.404;11.738;2023-02-28T07:43:44;96848.00;;;-0.50;60.11
31357;BME280;60001;48.404;11.738;2023-02-28T07:45:18;96859.38;;;-0.51;59.89
31357;BME280;60001;48.404;11.738;2023-02-28T07:46:50;96849.53;;;-0.64;59.90
31357;BME280;60001;48.404;11.738;2023-02-28T07:48:23;96852.25;;;-0.57;60.76
31357;BME280;60001;48.404;11.738;2023-02-28T07:49:55;96851.09;;;-0.46;60.46
31357;BME280;60001;48.404;11.738;2023-02-28T07:51:27;96852.63;;;-0.29;59.74
31357;BME280;60001;48.404;11.738;2023-02-28T07:52:59;96864.72;;;-0.13;59.36
31357;BME280;60001;48.404;11.738;2023-02-28T07:54:32;96863.38;;;-0.09;59.20
31357;BME280;60001;48.404;11.738;2023-02-28T07:56:05;96865.28;;;-0.26;58.97
31357;BME280;60001;48.404;11.738;2023-02-28T07:57:37;96858.75;;;-0.53;59.05
31357;BME280;60001;48.404;11.738;2023-02-28T07:59:12;96861.09;;;-0.35;59.88
31357;BME280;60001;48.404;11.738;2023-02-28T08:00:51;96861.03;;;-0.19;59.61
31357;BME280;60001;48.404;11.738;2023-02-28T08:02:26;96863.81;;;-0.29;58.86
31357;BME280;60001;48.404;11.738;2023-02-28T08:03:59;96861.59;;;-0.09;59.41
31357;BME280;60001;48.404;11.738;2023-02-28T08:05:31;96867.41;;;0.02;59.19
31357;BME280;60001;48.404;11.738;2023-02-28T08:07:03;96858.00;;;0.01;58.71
31357;BME280;60001;48.404;11.738;2023-02-28T08:08:34;96854.94;;;-0.03;58.23
31357;BME280;60001;48.404;11.738;2023-02-28T08:10:07;96857.44;;;-0.18;58.78
31357;BME280;60001;48.404;11.738;2023-02-28T08:11:40;96857.91;;;-0.14;59.24
31357;BME280;60001;48.404;11.738;2023-02-28T08:13:12;96863.41;;;0.14;58.89
31357;BME280;60001;48.404;11.738;2023-02-28T08:14:44;96866.47;;;0.40;58.67
31357;BME280;60001;48.404;11.738;2023-02-28T08:16:17;96860.03;;;0.36;57.73
31357;BME280;60001;48.404;11.738;2023-02-28T08:17:52;96861.00;;;0.58;57.95
31357;BME280;60001;48.404;11.738;2023-02-28T08:19:26;96857.88;;;0.40;57.24